createdAt,value
2023-10-17T00:01:14.627Z,16.90
2023-10-17T00:03:44.838Z,16.90
2023-10-17T00:06:14.721Z,16.90
2023-10-17T00:08:43.165Z,16.90
2023-10-17T00:11:16.120Z,16.90
2023-10-17T00:13:59.341Z,16.90
2023-10-17T00:16:29.682Z,16.90
2023-10-17T00:19:05.739Z,16.90
2023-10-17T00:21:34.218Z,16.90
2023-10-17T00:24:06.128Z,16.90
2023-10-17T00:26:34.176Z,16.90
2023-10-17T00:29:06.246Z,16.90
2023-10-17T00:31:36.553Z,16.80
2023-10-17T00:34:14.188Z,16.90
2023-10-17T00:36:49.205Z,16.90
2023-10-17T00:39:24.190Z,16.80
2023-10-17T00:42:10.826Z,16.80
2023-10-17T00:44:39.930Z,16.90
2023-10-17T00:47:12.681Z,16.80
2023-10-17T00:49:43.249Z,16.80
2023-10-17T00:52:19.495Z,16.80
2023-10-17T00:54:48.578Z,16.80
2023-10-17T00:57:16.795Z,16.80
2023-10-17T00:59:51.999Z,16.80
2023-10-17T01:02:24.518Z,16.80
2023-10-17T01:04:52.912Z,16.80
2023-10-17T01:07:28.271Z,16.80
2023-10-17T01:10:11.062Z,16.80
2023-10-17T01:12:46.918Z,16.80
2023-10-17T01:15:21.305Z,16.80
2023-10-17T01:17:55.129Z,16.80
2023-10-17T01:20:23.596Z,16.80
2023-10-17T01:22:56.877Z,16.80
2023-10-17T01:25:27.805Z,16.80
2023-10-17T01:27:58.260Z,16.80
2023-10-17T01:30:30.663Z,16.80
2023-10-17T01:32:59.359Z,16.80
2023-10-17T01:35:28.039Z,16.80
2023-10-17T01:37:56.764Z,16.80
2023-10-17T01:40:27.915Z,16.80
2023-10-17T01:42:58.158Z,16.80
2023-10-17T01:45:30.787Z,16.80
2023-10-17T01:48:00.078Z,16.80
2023-10-17T01:50:29.110Z,16.80
2023-10-17T01:53:01.394Z,16.80
2023-10-17T01:55:31.232Z,16.80
2023-10-17T01:58:00.844Z,16.80
2023-10-17T02:00:39.004Z,16.80
2023-10-17T02:03:08.296Z,16.80
2023-10-17T02:05:36.959Z,16.80
2023-10-17T02:08:06.439Z,16.80
2023-10-17T02:10:37.928Z,16.70
2023-10-17T02:13:07.443Z,16.70
2023-10-17T02:15:36.308Z,16.70
2023-10-17T02:18:14.550Z,16.70
2023-10-17T02:20:49.220Z,16.70
2023-10-17T02:23:20.822Z,16.70
2023-10-17T02:25:51.399Z,16.70
2023-10-17T02:28:19.357Z,16.70
2023-10-17T02:30:47.363Z,16.70
2023-10-17T02:33:18.462Z,16.70
2023-10-17T02:35:54.713Z,16.70
2023-10-17T02:38:23.098Z,16.70
2023-10-17T02:40:56.012Z,16.70
2023-10-17T02:43:23.959Z,16.70
2023-10-17T02:45:54.697Z,16.70
2023-10-17T02:48:27.390Z,16.70
2023-10-17T02:51:01.491Z,16.70
2023-10-17T02:53:31.455Z,16.70
2023-10-17T02:56:08.364Z,16.70
2023-10-17T02:58:36.551Z,16.70
2023-10-17T03:01:04.469Z,16.70
2023-10-17T03:03:35.399Z,16.70
2023-10-17T03:06:06.735Z,16.70
2023-10-17T03:08:37.795Z,16.70
2023-10-17T03:11:09.354Z,16.70
2023-10-17T03:13:41.955Z,16.70
2023-10-17T03:16:17.352Z,16.70
2023-10-17T03:18:50.841Z,16.60
2023-10-17T03:21:19.907Z,16.70
2023-10-17T03:23:51.045Z,16.60
2023-10-17T03:26:23.340Z,16.70
2023-10-17T03:28:52.097Z,16.60
2023-10-17T03:31:22.432Z,16.60
2023-10-17T03:33:53.088Z,16.60
2023-10-17T03:36:44.206Z,16.60
2023-10-17T03:39:23.040Z,16.60
2023-10-17T03:41:57.764Z,16.60
2023-10-17T03:44:31.106Z,16.60
2023-10-17T03:47:05.157Z,16.60
2023-10-17T03:49:38.141Z,16.60
2023-10-17T03:52:08.111Z,16.60
2023-10-17T03:54:40.088Z,16.60
2023-10-17T03:57:16.840Z,16.60
2023-10-17T03:59:52.335Z,16.60
2023-10-17T04:02:21.494Z,16.60
2023-10-17T04:04:54.396Z,16.60
2023-10-17T04:07:24.163Z,16.60
2023-10-17T04:09:55.566Z,16.60
2023-10-17T04:12:33.190Z,16.60
2023-10-17T04:15:05.710Z,16.60
2023-10-17T04:17:37.553Z,16.60
2023-10-17T04:20:13.138Z,16.60
2023-10-17T04:22:44.518Z,16.60
2023-10-17T04:25:35.288Z,16.60
2023-10-17T04:28:05.182Z,16.60
2023-10-17T04:30:36.538Z,16.50
2023-10-17T04:33:11.038Z,16.60
2023-10-17T04:35:43.829Z,16.50
2023-10-17T04:38:20.425Z,16.60
2023-10-17T04:41:01.057Z,16.50
2023-10-17T04:43:55.707Z,16.50
2023-10-17T04:46:27.233Z,16.50
2023-10-17T04:48:59.371Z,16.50
2023-10-17T04:51:32.535Z,16.50
2023-10-17T04:54:10.318Z,16.50
2023-10-17T04:56:54.144Z,16.50
2023-10-17T04:59:42.320Z,16.50
2023-10-17T05:02:37.176Z,16.50
2023-10-17T05:05:22.883Z,16.50
2023-10-17T05:08:08.586Z,16.50
2023-10-17T05:10:53.937Z,16.50
2023-10-17T05:13:39.360Z,16.50
2023-10-17T05:16:26.357Z,16.50
2023-10-17T05:19:11.805Z,16.50
2023-10-17T05:21:57.308Z,16.50
2023-10-17T05:24:42.753Z,16.50
2023-10-17T05:27:24.930Z,16.50
2023-10-17T05:30:10.525Z,16.50
2023-10-17T05:32:57.423Z,16.50
2023-10-17T05:35:42.960Z,16.50
2023-10-17T05:38:28.418Z,16.40
2023-10-17T05:41:13.797Z,16.50
2023-10-17T05:43:59.415Z,16.40
2023-10-17T05:46:44.902Z,16.40
2023-10-17T05:49:33.929Z,16.40
2023-10-17T05:52:19.319Z,16.40
2023-10-17T05:55:26.918Z,16.40
2023-10-17T05:58:11.271Z,16.40
2023-10-17T06:00:56.899Z,16.40
2023-10-17T06:03:38.978Z,16.40
2023-10-17T06:06:32.192Z,16.40
2023-10-17T06:09:18.098Z,16.40
2023-10-17T06:12:03.662Z,16.40
2023-10-17T06:14:49.251Z,16.40
2023-10-17T06:17:23.458Z,16.40
2023-10-17T06:19:51.925Z,16.40
2023-10-17T06:22:39.160Z,16.40
2023-10-17T06:25:24.224Z,16.40
2023-10-17T06:28:12.007Z,16.40
2023-10-17T06:30:49.398Z,16.40
2023-10-17T06:33:20.592Z,16.40
2023-10-17T06:35:53.921Z,16.40
2023-10-17T06:38:28.922Z,16.40
2023-10-17T06:41:12.557Z,16.40
2023-10-17T06:43:40.865Z,16.40
2023-10-17T06:46:13.461Z,16.30
2023-10-17T06:48:50.369Z,16.30
2023-10-17T06:51:31.388Z,16.30
2023-10-17T06:54:07.471Z,16.30
2023-10-17T06:56:42.397Z,16.30
2023-10-17T06:59:23.330Z,16.30
2023-10-17T07:02:09.934Z,16.30
2023-10-17T07:04:38.452Z,16.30
2023-10-17T07:07:06.573Z,16.30
2023-10-17T07:09:39.603Z,16.30
2023-10-17T07:12:14.540Z,16.30
2023-10-17T07:14:49.436Z,16.30
2023-10-17T07:17:29.525Z,16.30
2023-10-17T07:20:14.051Z,16.30
2023-10-17T07:22:42.414Z,16.30
2023-10-17T07:25:19.103Z,16.30
2023-10-17T07:27:47.929Z,16.30
2023-10-17T07:30:28.877Z,16.30
2023-10-17T07:32:57.695Z,16.30
2023-10-17T07:35:26.565Z,16.30
2023-10-17T07:37:58.255Z,16.30
2023-10-17T07:40:43.406Z,16.30
2023-10-17T07:43:13.469Z,16.30
2023-10-17T07:45:41.942Z,16.30
2023-10-17T07:48:25.972Z,16.30
2023-10-17T07:50:55.909Z,16.30
2023-10-17T07:53:24.247Z,16.20
2023-10-17T07:56:04.170Z,16.20
2023-10-17T07:58:44.437Z,16.20
2023-10-17T08:01:17.493Z,16.20
2023-10-17T08:03:55.984Z,16.20
2023-10-17T08:06:30.126Z,16.20
2023-10-17T08:09:00.408Z,16.20
2023-10-17T08:11:31.797Z,16.20
2023-10-17T08:14:04.581Z,16.30
2023-10-17T08:16:34.121Z,16.20
2023-10-17T08:19:15.979Z,16.20
2023-10-17T08:22:01.050Z,16.20
2023-10-17T08:24:34.694Z,16.20
2023-10-17T08:27:18.836Z,16.20
2023-10-17T08:29:46.625Z,16.20
2023-10-17T08:32:39.368Z,16.20
2023-10-17T08:35:18.649Z,16.20
2023-10-17T08:37:46.703Z,16.20
2023-10-17T08:40:30.871Z,16.20
2023-10-17T08:43:02.937Z,16.20
2023-10-17T08:45:37.353Z,16.20
2023-10-17T08:48:07.513Z,16.20
2023-10-17T08:50:38.920Z,16.20
2023-10-17T08:53:13.391Z,16.20
2023-10-17T08:55:42.761Z,16.20
2023-10-17T08:58:12.592Z,16.20
2023-10-17T09:00:50.878Z,16.20
2023-10-17T09:03:24.412Z,16.20
2023-10-17T09:05:59.391Z,16.20
2023-10-17T09:08:43.389Z,16.20
2023-10-17T09:11:18.040Z,16.20
2023-10-17T09:14:10.183Z,16.20
2023-10-17T09:16:42.266Z,16.20
2023-10-17T09:19:11.574Z,16.20
2023-10-17T09:21:43.348Z,16.20
2023-10-17T09:24:33.512Z,16.20
2023-10-17T09:27:04.712Z,16.20
2023-10-17T09:29:44.286Z,16.20
2023-10-17T09:32:12.211Z,16.20
2023-10-17T09:34:43.356Z,16.10
2023-10-17T09:37:14.832Z,16.10
2023-10-17T09:39:47.938Z,16.10
2023-10-17T09:42:16.708Z,16.20
2023-10-17T09:44:47.886Z,16.20
2023-10-17T09:47:21.067Z,16.10
2023-10-17T09:49:51.909Z,16.10
2023-10-17T09:52:22.071Z,16.10
2023-10-17T09:54:53.209Z,16.10
2023-10-17T09:57:26.329Z,16.10
2023-10-17T10:00:08.993Z,16.10
2023-10-17T10:02:39.945Z,16.10
2023-10-17T10:05:21.166Z,16.10
2023-10-17T10:07:49.892Z,16.10
2023-10-17T10:10:49.884Z,16.10
2023-10-17T10:13:18.528Z,16.10
2023-10-17T10:15:55.595Z,16.10
2023-10-17T10:19:00.098Z,16.10
2023-10-17T10:21:55.133Z,16.10
2023-10-17T10:24:30.948Z,16.10
2023-10-17T10:27:19.935Z,16.10
2023-10-17T10:29:52.265Z,16.10
2023-10-17T10:32:36.485Z,16.10
2023-10-17T10:35:06.863Z,16.10
2023-10-17T10:37:48.722Z,16.10
2023-10-17T10:40:18.963Z,16.10
2023-10-17T10:42:48.787Z,16.10
2023-10-17T10:45:30.813Z,16.10
2023-10-17T10:48:00.855Z,16.10
2023-10-17T10:50:30.639Z,16.10
2023-10-17T10:52:59.704Z,16.10
2023-10-17T10:55:28.091Z,16.10
2023-10-17T10:57:56.313Z,16.10
2023-10-17T11:00:26.592Z,16.10
2023-10-17T11:02:55.716Z,16.10
2023-10-17T11:05:25.058Z,16.10
2023-10-17T11:08:01.947Z,16.10
2023-10-17T11:10:30.513Z,16.10
2023-10-17T11:12:58.463Z,16.10
2023-10-17T11:15:29.257Z,16.10
2023-10-17T11:18:09.064Z,16.10
2023-10-17T11:20:41.512Z,16.10
2023-10-17T11:23:13.075Z,16.00
2023-10-17T11:25:47.017Z,16.10
2023-10-17T11:28:18.131Z,16.10
2023-10-17T11:30:48.374Z,16.10
2023-10-17T11:33:18.136Z,16.00
2023-10-17T11:35:51.565Z,16.00
2023-10-17T11:38:44.134Z,16.10
2023-10-17T11:41:16.659Z,16.10
2023-10-17T11:43:52.324Z,16.00
2023-10-17T11:46:29.916Z,16.00
2023-10-17T11:49:22.018Z,16.00
2023-10-17T11:51:58.473Z,16.10
2023-10-17T11:56:57.755Z,16.00
2023-10-17T11:59:26.644Z,16.00
2023-10-17T12:01:54.595Z,16.00
2023-10-17T12:04:24.738Z,16.00
2023-10-17T12:06:54.294Z,16.00
2023-10-17T12:09:24.933Z,16.00
2023-10-17T12:11:54.683Z,16.00
2023-10-17T12:14:23.479Z,16.00
2023-10-17T12:16:55.177Z,16.00
2023-10-17T12:19:23.550Z,16.00
2023-10-17T12:21:51.520Z,16.00
2023-10-17T12:24:25.662Z,16.00
2023-10-17T12:26:54.428Z,16.00
2023-10-17T12:29:26.999Z,16.00
2023-10-17T12:31:55.385Z,16.00
2023-10-17T12:34:23.696Z,16.00
2023-10-17T12:36:52.080Z,16.00
2023-10-17T12:39:21.707Z,16.00
2023-10-17T12:41:50.301Z,16.00
2023-10-17T12:44:21.306Z,16.00
2023-10-17T12:46:49.228Z,16.00
2023-10-17T12:49:16.709Z,16.00
2023-10-17T12:51:44.879Z,16.00
2023-10-17T12:54:13.055Z,16.00
2023-10-17T12:56:42.337Z,16.00
2023-10-17T12:59:13.401Z,16.00
2023-10-17T13:01:41.928Z,16.00
2023-10-17T13:04:11.425Z,16.00
2023-10-17T13:06:39.982Z,16.00
2023-10-17T13:09:07.959Z,16.00
2023-10-17T13:11:35.869Z,16.00
2023-10-17T13:14:06.243Z,16.00
2023-10-17T13:16:35.524Z,16.00
2023-10-17T13:19:07.671Z,16.00
2023-10-17T13:21:38.438Z,16.00
2023-10-17T13:24:08.893Z,16.00
2023-10-17T13:26:38.782Z,16.00
2023-10-17T13:29:08.279Z,16.00
2023-10-17T13:31:36.238Z,16.00
2023-10-17T13:34:05.708Z,16.00
2023-10-17T13:36:33.680Z,16.00
2023-10-17T13:39:02.150Z,16.00
2023-10-17T13:41:30.099Z,16.00
2023-10-17T13:43:57.990Z,16.00
2023-10-17T13:46:27.296Z,16.00
2023-10-17T13:48:57.775Z,16.00
2023-10-17T13:51:35.538Z,16.00
2023-10-17T13:54:07.016Z,16.00
2023-10-17T13:56:35.675Z,16.00
2023-10-17T13:59:04.511Z,16.00
2023-10-17T14:01:34.667Z,16.00
2023-10-17T14:04:03.858Z,16.00
2023-10-17T14:06:35.603Z,16.00
2023-10-17T14:09:05.263Z,16.00
2023-10-17T14:11:36.414Z,16.00
2023-10-17T14:14:05.757Z,16.00
2023-10-17T14:16:41.447Z,16.00
2023-10-17T14:19:16.938Z,16.00
2023-10-17T14:22:02.386Z,16.00
2023-10-17T14:24:39.673Z,16.00
2023-10-17T14:27:13.194Z,16.00
2023-10-17T14:29:43.141Z,16.00
2023-10-17T14:32:12.488Z,16.00
2023-10-17T14:34:40.422Z,16.00
2023-10-17T14:37:08.333Z,16.00
2023-10-17T14:39:38.156Z,16.00
2023-10-17T14:42:06.490Z,16.00
2023-10-17T14:44:34.834Z,16.00
2023-10-17T14:47:02.718Z,16.00
2023-10-17T14:49:31.962Z,16.00
2023-10-17T14:51:59.916Z,16.00
2023-10-17T14:54:27.885Z,16.00
2023-10-17T14:56:56.316Z,16.00
2023-10-17T14:59:24.280Z,16.00
2023-10-17T15:01:53.004Z,16.00
2023-10-17T15:04:21.388Z,16.00
2023-10-17T15:06:52.157Z,16.00
2023-10-17T15:09:20.134Z,16.00
2023-10-17T15:11:48.162Z,16.00
2023-10-17T15:14:16.482Z,16.00
2023-10-17T15:16:44.930Z,16.00
2023-10-17T15:19:13.047Z,16.00
2023-10-17T15:21:41.017Z,16.00
2023-10-17T15:24:13.193Z,16.00
2023-10-17T15:26:42.081Z,16.00
2023-10-17T15:29:10.000Z,16.00
2023-10-17T15:31:37.935Z,16.00
2023-10-17T15:34:05.960Z,16.00
2023-10-17T15:36:34.138Z,16.00
2023-10-17T15:39:02.058Z,16.00
2023-10-17T15:41:31.335Z,16.00
2023-10-17T15:43:59.748Z,16.00
2023-10-17T15:46:27.742Z,16.00
2023-10-17T15:48:56.416Z,16.00
2023-10-17T15:51:27.611Z,16.00
2023-10-17T15:53:55.855Z,16.00
2023-10-17T15:56:29.350Z,16.00
2023-10-17T15:58:59.264Z,16.00
2023-10-17T16:01:27.335Z,16.00
2023-10-17T16:03:55.960Z,16.00
2023-10-17T16:06:24.139Z,16.00
2023-10-17T16:08:52.046Z,16.00
2023-10-17T16:11:21.646Z,16.00
2023-10-17T16:13:49.599Z,16.00
2023-10-17T16:16:20.239Z,16.00
2023-10-17T16:18:48.444Z,16.00
2023-10-17T16:21:16.737Z,16.00
2023-10-17T16:23:48.778Z,16.00
2023-10-17T16:26:16.867Z,16.00
2023-10-17T16:28:46.163Z,16.00
2023-10-17T16:31:14.924Z,16.00
2023-10-17T16:33:44.229Z,16.00
2023-10-17T16:36:12.165Z,16.00
2023-10-17T16:38:46.336Z,16.00
2023-10-17T16:41:14.491Z,16.00
2023-10-17T16:43:42.826Z,16.00
2023-10-17T16:46:12.689Z,16.00
2023-10-17T16:48:40.675Z,16.00
2023-10-17T16:51:09.977Z,16.00
2023-10-17T16:53:39.660Z,16.00
2023-10-17T16:56:08.573Z,16.00
2023-10-17T16:58:39.178Z,16.00
2023-10-17T17:01:08.329Z,15.90
2023-10-17T17:03:36.983Z,16.00
2023-10-17T17:06:07.575Z,16.00
2023-10-17T17:08:37.339Z,16.00
2023-10-17T17:11:06.157Z,16.00
2023-10-17T17:13:34.658Z,16.00
2023-10-17T17:16:02.793Z,16.00
2023-10-17T17:18:46.529Z,16.00
2023-10-17T17:21:15.604Z,16.00
2023-10-17T17:23:45.234Z,16.00
2023-10-17T17:26:16.845Z,16.00
2023-10-17T17:28:44.943Z,16.00
2023-10-17T17:31:12.974Z,15.90
2023-10-17T17:33:41.054Z,15.90
2023-10-17T17:36:09.273Z,16.00
2023-10-17T17:38:40.782Z,16.00
2023-10-17T17:41:10.160Z,16.00
2023-10-17T17:43:38.117Z,16.00
2023-10-17T17:46:06.979Z,15.90
2023-10-17T17:48:36.297Z,16.00
2023-10-17T17:51:04.778Z,16.00
2023-10-17T17:53:33.106Z,15.90
2023-10-17T17:56:02.122Z,16.00
2023-10-17T17:58:32.311Z,16.00
2023-10-17T18:01:01.173Z,15.90
2023-10-17T18:03:29.849Z,16.00
2023-10-17T18:05:58.037Z,15.90
2023-10-17T18:08:27.485Z,15.90
2023-10-17T18:10:55.429Z,15.90
2023-10-17T18:13:23.362Z,15.90
2023-10-17T18:15:54.735Z,15.90
2023-10-17T18:18:22.781Z,16.00
2023-10-17T18:20:50.800Z,15.90
2023-10-17T18:23:19.200Z,15.90
2023-10-17T18:25:47.092Z,15.90
2023-10-17T18:28:14.973Z,16.00
2023-10-17T18:30:42.983Z,15.90
2023-10-17T18:33:12.438Z,15.90
2023-10-17T18:35:40.386Z,15.90
2023-10-17T18:38:08.716Z,15.90
2023-10-17T18:40:39.125Z,15.90
2023-10-17T18:43:07.069Z,15.90
2023-10-17T18:45:37.307Z,15.90
2023-10-17T18:48:06.249Z,15.90
2023-10-17T18:50:36.058Z,15.90
2023-10-17T18:53:04.386Z,15.90
2023-10-17T18:55:34.641Z,15.90
2023-10-17T18:58:02.640Z,15.90
2023-10-17T19:00:31.011Z,15.90
2023-10-17T19:02:59.011Z,15.90
2023-10-17T19:05:27.374Z,15.90
2023-10-17T19:07:56.614Z,15.90
2023-10-17T19:10:24.531Z,15.90
2023-10-17T19:12:53.702Z,15.90
2023-10-17T19:15:22.968Z,15.90
2023-10-17T19:17:52.868Z,15.90
2023-10-17T19:20:21.055Z,15.90
2023-10-17T19:22:49.144Z,15.90
2023-10-17T19:25:18.542Z,15.90
2023-10-17T19:27:46.582Z,15.90
2023-10-17T19:30:15.334Z,15.90
2023-10-17T19:32:43.863Z,15.90
2023-10-17T19:35:12.112Z,15.90
2023-10-17T19:37:40.377Z,15.90
2023-10-17T19:40:09.883Z,15.90
2023-10-17T19:42:39.248Z,15.90
2023-10-17T19:45:09.297Z,15.90
2023-10-17T19:47:37.492Z,15.90
2023-10-17T19:50:05.854Z,15.90
2023-10-17T19:52:35.104Z,15.90
2023-10-17T19:55:03.187Z,15.90
2023-10-17T19:57:31.274Z,15.90
2023-10-17T20:00:00.549Z,15.90
2023-10-17T20:02:29.608Z,15.90
2023-10-17T20:04:58.625Z,15.90
2023-10-17T20:07:26.516Z,15.90
2023-10-17T20:09:54.679Z,15.90
2023-10-17T20:12:22.671Z,15.90
2023-10-17T20:14:50.580Z,15.90
2023-10-17T20:17:21.847Z,15.90
2023-10-17T20:19:52.289Z,15.90
2023-10-17T20:22:20.226Z,15.90
2023-10-17T20:24:48.277Z,15.90
2023-10-17T20:27:16.354Z,15.90
2023-10-17T20:29:44.300Z,15.90
2023-10-17T20:32:13.092Z,15.90
2023-10-17T20:34:43.051Z,15.90
2023-10-17T20:37:11.468Z,15.90
2023-10-17T20:39:39.897Z,15.90
2023-10-17T20:42:09.237Z,15.90
2023-10-17T20:44:37.171Z,15.90
2023-10-17T20:47:06.580Z,15.90
2023-10-17T20:49:35.712Z,15.90
2023-10-17T20:52:05.955Z,15.90
2023-10-17T20:54:34.182Z,15.90
2023-10-17T20:57:02.121Z,15.90
2023-10-17T20:59:30.249Z,15.90
2023-10-17T21:01:58.391Z,15.90
2023-10-17T21:04:27.269Z,15.90
2023-10-17T21:06:55.327Z,15.90
2023-10-17T21:09:25.641Z,15.90
2023-10-17T21:11:53.753Z,15.90
2023-10-17T21:14:21.731Z,15.90
2023-10-17T21:16:50.113Z,15.90
2023-10-17T21:19:19.897Z,15.90
2023-10-17T21:21:47.877Z,15.90
2023-10-17T21:24:16.085Z,15.90
2023-10-17T21:26:45.352Z,15.90
2023-10-17T21:29:13.349Z,15.90
2023-10-17T21:31:41.814Z,15.90
2023-10-17T21:34:10.958Z,15.90
2023-10-17T21:36:38.963Z,15.90
2023-10-17T21:39:08.043Z,15.90
2023-10-17T21:41:36.099Z,15.90
2023-10-17T21:44:05.595Z,15.90
2023-10-17T21:46:33.533Z,15.90
2023-10-17T21:49:01.523Z,15.90
2023-10-17T21:51:29.495Z,15.90
2023-10-17T21:53:59.022Z,15.90
2023-10-17T21:56:27.081Z,15.90
2023-10-17T21:58:55.022Z,15.90
2023-10-17T22:01:25.742Z,15.90
2023-10-17T22:03:53.831Z,15.90
2023-10-17T22:06:22.839Z,15.90
2023-10-17T22:08:50.831Z,15.90
2023-10-17T22:11:19.765Z,15.90
2023-10-17T22:13:51.428Z,15.90
2023-10-17T22:16:21.832Z,15.90
2023-10-17T22:18:52.050Z,15.90
2023-10-17T22:21:21.774Z,15.90
2023-10-17T22:23:50.370Z,15.90
2023-10-17T22:26:18.600Z,15.90
2023-10-17T22:28:48.155Z,15.90
2023-10-17T22:31:16.299Z,15.90
2023-10-17T22:33:44.335Z,15.90
2023-10-17T22:36:14.110Z,15.90
2023-10-17T22:38:42.132Z,15.90
2023-10-17T22:41:11.141Z,15.90
2023-10-17T22:43:39.111Z,15.90
2023-10-17T22:46:09.266Z,15.90
2023-10-17T22:48:38.412Z,15.90
2023-10-17T22:51:07.024Z,15.90
2023-10-17T22:53:37.591Z,15.90
2023-10-17T22:56:10.630Z,15.90
2023-10-17T22:58:38.640Z,15.90
2023-10-17T23:01:07.054Z,15.90
2023-10-17T23:03:35.093Z,15.90
2023-10-17T23:06:07.448Z,15.90
2023-10-17T23:08:36.973Z,15.90
2023-10-17T23:11:07.303Z,15.90
2023-10-17T23:13:35.450Z,15.90
2023-10-17T23:16:08.846Z,15.90
2023-10-17T23:18:39.043Z,15.90
2023-10-17T23:21:07.672Z,15.90
2023-10-17T23:23:37.055Z,15.90
2023-10-17T23:26:04.961Z,15.90
2023-10-17T23:28:33.283Z,15.80
2023-10-17T23:31:01.493Z,15.90
2023-10-17T23:33:30.434Z,15.90
2023-10-17T23:35:59.795Z,15.90
2023-10-17T23:38:29.029Z,15.90
2023-10-17T23:40:58.638Z,15.80
2023-10-17T23:43:26.577Z,15.90
2023-10-17T23:45:54.930Z,15.80
2023-10-17T23:48:28.074Z,15.80
2023-10-17T23:50:57.232Z,15.80
2023-10-17T23:53:28.624Z,15.80
2023-10-17T23:56:02.730Z,15.80
2023-10-17T23:58:31.484Z,15.80
